Terminal Aerodrome Forecast
Issued by NWS Sioux Falls, SD

Home | Current Version | Previous Version | Graphics & Text | Print | Product List | Glossary On
Versions: 1 2 3 4 5 6 7 8 9 10 11 12 13 14 15 16 17 18 19 20 21 22
656
FTUS43 KFSD 102200 AAB
TAFFSD
TAF AMD
KFSD 102200Z 1022/1118 11012KT P6SM SCT015 OVC040
      TEMPO 1023/1103 BKN020
     FM110800 11005KT P6SM OVC025
     FM111500 14004KT P6SM OVC015=

USA.gov is the U.S. government's official web portal to all federal, state and local government web resources and services.